createdAt,value
2019-05-07T00:01:02.915Z,16.43
2019-05-07T00:03:32.839Z,20.60
2019-05-07T00:06:02.777Z,18.23
2019-05-07T00:08:32.168Z,18.23
2019-05-07T00:11:02.299Z,17.47
2019-05-07T00:13:33.137Z,19.57
2019-05-07T00:16:02.481Z,22.77
2019-05-07T00:18:32.181Z,21.53
2019-05-07T00:21:03.340Z,24.40
2019-05-07T00:23:32.476Z,20.53
2019-05-07T00:26:02.736Z,19.73
2019-05-07T00:28:32.428Z,22.90
2019-05-07T00:31:02.875Z,21.83
2019-05-07T00:33:32.344Z,20.83
2019-05-07T00:36:02.710Z,23.00
2019-05-07T00:38:32.805Z,21.87
2019-05-07T00:41:05.842Z,19.37
2019-05-07T00:43:35.303Z,24.57
2019-05-07T00:46:05.513Z,24.60
2019-05-07T00:48:34.087Z,23.30
2019-05-07T00:51:22.447Z,22.17
2019-05-07T00:53:52.034Z,25.63
2019-05-07T00:56:22.297Z,23.20
2019-05-07T00:58:52.708Z,24.00
2019-05-07T01:01:22.729Z,25.77
2019-05-07T01:03:53.342Z,25.80
2019-05-07T01:06:22.779Z,25.40
2019-05-07T01:08:52.521Z,27.50
2019-05-07T01:11:22.638Z,29.87
2019-05-07T01:13:52.035Z,28.30
2019-05-07T01:16:22.278Z,33.47
2019-05-07T01:18:50.952Z,29.00
2019-05-07T01:21:19.577Z,27.60
2019-05-07T01:23:48.157Z,26.13
2019-05-07T01:26:16.702Z,27.47
2019-05-07T01:29:02.890Z,27.23
2019-05-07T01:31:32.997Z,27.27
2019-05-07T01:34:22.953Z,25.63
2019-05-07T01:36:52.381Z,23.87
2019-05-07T01:39:23.013Z,23.30
2019-05-07T01:41:52.442Z,24.57
2019-05-07T01:44:22.140Z,21.40
2019-05-07T01:46:52.745Z,30.13
2019-05-07T01:49:20.962Z,24.73
2019-05-07T01:51:49.387Z,22.77
2019-05-07T01:54:18.033Z,25.00
2019-05-07T01:56:46.554Z,24.13
2019-05-07T01:59:15.024Z,27.33
2019-05-07T02:01:44.079Z,24.43
2019-05-07T02:04:17.152Z,29.33
2019-05-07T02:07:03.528Z,25.87
2019-05-07T02:09:34.114Z,22.30
2019-05-07T02:12:04.342Z,21.97
2019-05-07T02:14:33.126Z,24.23
2019-05-07T02:17:02.973Z,28.90
2019-05-07T02:19:32.893Z,24.17
2019-05-07T02:22:02.799Z,23.90
2019-05-07T02:24:33.708Z,25.73
2019-05-07T02:27:03.050Z,23.13
2019-05-07T02:29:32.355Z,21.83
2019-05-07T02:32:04.295Z,24.53
2019-05-07T02:34:34.313Z,22.70
2019-05-07T02:37:04.054Z,24.90
2019-05-07T02:39:39.640Z,26.13
2019-05-07T02:42:08.310Z,28.57
2019-05-07T02:44:38.454Z,29.40
2019-05-07T02:47:14.287Z,22.67
2019-05-07T02:49:53.655Z,22.33
2019-05-07T02:52:26.666Z,22.73
2019-05-07T02:54:56.822Z,28.10
2019-05-07T02:57:25.854Z,26.83
2019-05-07T02:59:54.667Z,26.13
2019-05-07T03:02:24.133Z,26.57
2019-05-07T03:04:53.378Z,27.00
2019-05-07T03:07:24.103Z,24.03
2019-05-07T03:09:53.878Z,24.17
2019-05-07T03:12:23.715Z,23.80
2019-05-07T03:14:53.705Z,26.03
2019-05-07T03:17:24.688Z,22.93
2019-05-07T03:19:53.953Z,26.57
2019-05-07T03:22:23.326Z,26.63
2019-05-07T03:24:56.285Z,27.97
2019-05-07T03:27:24.754Z,26.47
2019-05-07T03:30:04.271Z,28.37
2019-05-07T03:32:39.637Z,25.37
2019-05-07T03:35:17.446Z,31.13
2019-05-07T03:37:46.070Z,26.23
2019-05-07T03:40:14.528Z,26.83
2019-05-07T03:42:43.923Z,29.33
2019-05-07T03:45:14.499Z,34.10
2019-05-07T03:47:44.591Z,25.60
2019-05-07T03:50:14.731Z,32.43
2019-05-07T03:52:43.518Z,31.40
2019-05-07T03:55:14.571Z,36.30
2019-05-07T03:57:43.606Z,29.53
2019-05-07T04:00:13.457Z,32.20
2019-05-07T04:02:43.768Z,35.07
2019-05-07T04:05:14.019Z,32.93
2019-05-07T04:07:43.029Z,32.27
2019-05-07T04:10:14.666Z,33.40
2019-05-07T04:12:44.301Z,30.77
2019-05-07T04:15:14.612Z,33.53
2019-05-07T04:17:43.148Z,36.63
2019-05-07T04:20:13.482Z,40.33
2019-05-07T04:22:43.176Z,33.67
2019-05-07T04:25:29.910Z,31.27
2019-05-07T04:28:00.057Z,36.80
2019-05-07T04:30:29.577Z,33.37
2019-05-07T04:32:59.782Z,34.87
2019-05-07T04:35:33.155Z,31.63
2019-05-07T04:38:05.393Z,34.37
2019-05-07T04:40:30.266Z,32.03
2019-05-07T04:42:58.723Z,35.40
2019-05-07T04:45:27.203Z,33.27
2019-05-07T04:47:55.689Z,33.13
2019-05-07T04:50:41.421Z,32.03
2019-05-07T04:52:55.902Z,33.33
2019-05-07T04:55:24.394Z,30.67
2019-05-07T04:57:53.504Z,35.07
2019-05-07T05:00:22.963Z,38.53
2019-05-07T05:02:53.462Z,28.87
2019-05-07T05:05:23.508Z,32.47
2019-05-07T05:07:53.374Z,33.30
2019-05-07T05:10:23.109Z,34.93
2019-05-07T05:12:53.602Z,30.93
2019-05-07T05:15:22.258Z,37.97
2019-05-07T05:17:53.686Z,34.27
2019-05-07T05:20:22.598Z,36.37
2019-05-07T05:22:55.458Z,36.00
2019-05-07T05:25:34.325Z,31.03
2019-05-07T05:28:02.822Z,34.40
2019-05-07T05:30:42.444Z,30.33
2019-05-07T05:33:12.582Z,29.17
2019-05-07T05:35:43.055Z,31.53
2019-05-07T05:38:12.721Z,34.20
2019-05-07T05:40:42.731Z,30.83
2019-05-07T05:43:15.899Z,31.13
2019-05-07T05:45:48.596Z,35.13
2019-05-07T05:48:17.118Z,35.77
2019-05-07T05:51:03.170Z,33.67
2019-05-07T05:53:48.241Z,29.80
2019-05-07T05:56:32.290Z,35.87
2019-05-07T05:59:05.242Z,27.30
2019-05-07T06:01:35.442Z,32.47
2019-05-07T06:04:14.786Z,30.23
2019-05-07T06:06:44.989Z,33.60
2019-05-07T06:09:17.885Z,32.47
2019-05-07T06:11:52.040Z,31.27
2019-05-07T06:14:22.312Z,32.00
2019-05-07T06:16:52.664Z,28.53
2019-05-07T06:19:34.806Z,25.10
2019-05-07T06:22:22.316Z,26.00
2019-05-07T06:24:52.561Z,30.10
2019-05-07T06:27:22.899Z,30.73
2019-05-07T06:29:52.427Z,31.67
2019-05-07T06:32:22.965Z,25.33
2019-05-07T06:34:52.294Z,29.93
2019-05-07T06:37:22.865Z,36.67
2019-05-07T06:39:53.042Z,26.67
2019-05-07T06:42:39.158Z,28.60
2019-05-07T06:45:12.392Z,25.37
2019-05-07T06:47:42.511Z,28.03
2019-05-07T06:50:12.616Z,35.03
2019-05-07T06:52:42.547Z,29.97
2019-05-07T06:55:13.008Z,34.87
2019-05-07T06:57:42.539Z,28.47
2019-05-07T07:00:22.530Z,27.27
2019-05-07T07:03:02.093Z,25.13
2019-05-07T07:05:35.204Z,24.57
2019-05-07T07:08:23.657Z,28.20
2019-05-07T07:11:09.875Z,34.23
2019-05-07T07:13:38.327Z,27.20
2019-05-07T07:16:06.887Z,22.20
2019-05-07T07:18:48.505Z,23.33
2019-05-07T07:21:05.646Z,22.50
2019-05-07T07:23:34.239Z,23.40
2019-05-07T07:26:03.355Z,25.40
2019-05-07T07:28:32.696Z,26.30
2019-05-07T07:31:05.515Z,20.97
2019-05-07T07:33:35.746Z,19.90
2019-05-07T07:36:04.188Z,23.13
2019-05-07T07:38:32.979Z,23.77
2019-05-07T07:41:05.506Z,20.00
2019-05-07T07:43:34.245Z,18.80
2019-05-07T07:46:02.792Z,24.93
2019-05-07T07:48:32.120Z,19.17
2019-05-07T07:51:02.957Z,19.47
2019-05-07T07:53:35.138Z,19.03
2019-05-07T07:56:19.264Z,18.73
2019-05-07T07:58:58.079Z,23.23
2019-05-07T08:01:34.176Z,18.40
2019-05-07T08:04:02.918Z,18.13
2019-05-07T08:06:32.726Z,18.40
2019-05-07T08:09:02.178Z,20.20
2019-05-07T08:11:31.974Z,19.87
2019-05-07T08:14:02.349Z,16.63
2019-05-07T08:16:32.773Z,18.77
2019-05-07T08:19:02.974Z,15.40
2019-05-07T08:21:33.211Z,20.80
2019-05-07T08:24:02.857Z,15.17
2019-05-07T08:26:32.315Z,13.43
2019-05-07T08:29:02.866Z,11.90
2019-05-07T08:31:48.479Z,11.27
2019-05-07T08:34:31.952Z,11.83
2019-05-07T08:37:01.881Z,20.17
2019-05-07T08:39:32.619Z,17.80
2019-05-07T08:42:02.107Z,14.83
2019-05-07T08:44:42.944Z,15.07
2019-05-07T08:47:13.044Z,13.50
2019-05-07T08:49:43.325Z,25.40
2019-05-07T08:52:12.191Z,12.10
2019-05-07T08:54:42.635Z,15.37
2019-05-07T08:57:12.146Z,10.93
2019-05-07T08:59:43.739Z,15.20
2019-05-07T09:02:12.585Z,14.93
2019-05-07T09:04:41.804Z,11.70
2019-05-07T09:07:12.749Z,15.40
2019-05-07T09:09:42.624Z,10.90
2019-05-07T09:12:12.375Z,12.17
2019-05-07T09:14:42.629Z,14.13
2019-05-07T09:17:12.771Z,16.67
2019-05-07T09:19:50.570Z,12.37
2019-05-07T09:22:12.711Z,14.00
2019-05-07T09:24:42.413Z,12.57
2019-05-07T09:27:12.826Z,17.10
2019-05-07T09:29:52.093Z,12.50
2019-05-07T09:32:28.138Z,20.53
2019-05-07T09:34:58.437Z,12.17
2019-05-07T09:37:28.921Z,12.53
2019-05-07T09:39:57.457Z,12.60
2019-05-07T09:42:26.136Z,12.50
2019-05-07T09:44:54.740Z,14.30
2019-05-07T09:47:23.308Z,12.67
2019-05-07T09:50:03.984Z,13.40
2019-05-07T09:52:22.825Z,19.27
2019-05-07T09:54:52.270Z,12.57
2019-05-07T09:57:30.203Z,13.20
2019-05-07T09:59:53.053Z,15.83
2019-05-07T10:02:22.674Z,12.47
2019-05-07T10:04:52.695Z,12.97
2019-05-07T10:07:22.318Z,15.40
2019-05-07T10:09:52.333Z,12.47
2019-05-07T10:12:22.869Z,17.17
2019-05-07T10:14:52.267Z,10.70
2019-05-07T10:17:34.333Z,13.60
2019-05-07T10:20:17.891Z,9.73
2019-05-07T10:22:33.572Z,11.27
2019-05-07T10:25:02.833Z,14.03
2019-05-07T10:27:32.499Z,13.27
2019-05-07T10:30:02.367Z,10.30
2019-05-07T10:32:32.182Z,7.43
2019-05-07T10:35:02.094Z,8.83
2019-05-07T10:37:31.866Z,10.40
2019-05-07T10:40:02.834Z,10.33
2019-05-07T10:42:32.323Z,7.97
2019-05-07T10:45:03.159Z,8.73
2019-05-07T10:47:41.947Z,8.83
2019-05-07T10:50:35.434Z,14.00
2019-05-07T10:52:53.912Z,11.37
2019-05-07T10:55:22.487Z,11.27
2019-05-07T10:57:52.832Z,8.60
2019-05-07T11:00:23.348Z,13.50
2019-05-07T11:02:51.953Z,9.93
2019-05-07T11:05:21.946Z,10.17
2019-05-07T11:07:50.731Z,8.60
2019-05-07T11:10:19.425Z,11.80
2019-05-07T11:12:47.956Z,10.53
2019-05-07T11:15:16.582Z,9.63
2019-05-07T11:17:52.475Z,12.23
2019-05-07T11:20:22.603Z,11.47
2019-05-07T11:22:52.219Z,11.03
2019-05-07T11:25:22.514Z,11.43
2019-05-07T11:27:52.336Z,11.43
2019-05-07T11:30:22.789Z,18.07
2019-05-07T11:32:52.268Z,9.93
2019-05-07T11:35:22.998Z,9.07
2019-05-07T11:37:52.067Z,38.77
2019-05-07T11:40:22.695Z,10.20
2019-05-07T11:43:02.458Z,12.77
2019-05-07T11:45:48.787Z,8.20
2019-05-07T11:48:18.641Z,12.37
2019-05-07T11:51:00.579Z,10.17
2019-05-07T11:53:22.076Z,10.07
2019-05-07T11:55:52.370Z,10.53
2019-05-07T11:58:21.992Z,7.90
2019-05-07T12:00:58.515Z,10.40
2019-05-07T12:03:27.089Z,9.90
2019-05-07T12:05:55.608Z,9.87
2019-05-07T12:08:37.496Z,13.77
2019-05-07T12:10:54.377Z,22.27
2019-05-07T12:13:22.790Z,14.20
2019-05-07T12:15:52.216Z,12.77
2019-05-07T12:18:22.662Z,8.33
2019-05-07T12:20:53.865Z,11.87
2019-05-07T12:23:22.578Z,13.30
2019-05-07T12:25:52.849Z,8.27
2019-05-07T12:28:22.512Z,8.77
2019-05-07T12:31:07.999Z,9.03
2019-05-07T12:33:42.643Z,11.83
2019-05-07T12:36:12.670Z,8.60
2019-05-07T12:38:41.718Z,10.27
2019-05-07T12:41:17.982Z,11.10
2019-05-07T12:43:46.513Z,9.73
2019-05-07T12:46:14.962Z,13.50
2019-05-07T12:48:43.564Z,11.57
2019-05-07T12:51:12.580Z,13.90
2019-05-07T12:53:42.791Z,16.30
2019-05-07T12:56:11.241Z,11.30
2019-05-07T12:58:39.723Z,10.57
2019-05-07T13:01:09.844Z,9.47
2019-05-07T13:03:42.874Z,9.37
2019-05-07T13:06:11.720Z,14.07
2019-05-07T13:08:42.031Z,9.43
2019-05-07T13:11:10.549Z,9.30
2019-05-07T13:13:39.195Z,11.13
2019-05-07T13:16:07.815Z,10.03
2019-05-07T13:18:36.401Z,8.77
2019-05-07T13:21:05.048Z,10.57
2019-05-07T13:23:33.506Z,11.57
2019-05-07T13:26:02.596Z,9.70
2019-05-07T13:28:31.247Z,9.60
2019-05-07T13:31:02.180Z,9.87
2019-05-07T13:33:31.658Z,14.23
2019-05-07T13:36:02.287Z,12.33
2019-05-07T13:38:33.133Z,6.17
2019-05-07T13:41:15.466Z,9.47
2019-05-07T13:44:02.888Z,8.90
2019-05-07T13:46:33.213Z,9.73
2019-05-07T13:49:02.167Z,8.33
2019-05-07T13:51:31.669Z,7.13
2019-05-07T13:54:02.108Z,8.47
2019-05-07T13:56:32.665Z,8.63
2019-05-07T13:59:04.639Z,9.93
2019-05-07T14:01:33.039Z,8.57
2019-05-07T14:04:03.769Z,10.80
2019-05-07T14:06:33.770Z,8.20
2019-05-07T14:09:02.280Z,13.67
2019-05-07T14:11:32.250Z,12.03
2019-05-07T14:14:01.831Z,10.30
2019-05-07T14:16:30.459Z,10.53
2019-05-07T14:18:59.136Z,11.47
2019-05-07T14:21:27.641Z,11.10
2019-05-07T14:23:56.517Z,6.73
2019-05-07T14:26:25.018Z,8.90
2019-05-07T14:28:53.557Z,9.23
2019-05-07T14:31:22.189Z,9.57
2019-05-07T14:33:55.306Z,10.50
2019-05-07T14:36:25.476Z,9.80
2019-05-07T14:38:54.864Z,10.80
2019-05-07T14:41:25.781Z,12.90
2019-05-07T14:43:58.205Z,10.30
2019-05-07T14:46:26.826Z,9.20
2019-05-07T14:48:55.607Z,19.57
2019-05-07T14:51:24.293Z,12.40
2019-05-07T14:53:52.995Z,10.37
2019-05-07T14:56:23.183Z,8.83
2019-05-07T14:58:52.024Z,8.63
2019-05-07T15:01:22.351Z,9.87
2019-05-07T15:03:51.686Z,11.07
2019-05-07T15:06:21.914Z,13.03
2019-05-07T15:08:52.217Z,13.67
2019-05-07T15:11:21.060Z,11.83
2019-05-07T15:13:49.606Z,10.67
2019-05-07T15:16:18.655Z,8.77
2019-05-07T15:18:52.956Z,11.93
2019-05-07T15:21:21.668Z,10.93
2019-05-07T15:23:52.861Z,10.43
2019-05-07T15:26:22.055Z,13.30
2019-05-07T15:28:52.330Z,7.53
2019-05-07T15:31:22.781Z,11.87
2019-05-07T15:33:52.285Z,10.47
2019-05-07T15:36:20.913Z,11.53
2019-05-07T15:38:49.570Z,12.07
2019-05-07T15:41:18.157Z,12.07
2019-05-07T15:43:46.646Z,13.90
2019-05-07T15:46:15.174Z,12.17
2019-05-07T15:48:46.090Z,14.33
2019-05-07T15:51:16.874Z,10.93
2019-05-07T15:53:52.511Z,9.47
2019-05-07T15:56:21.843Z,11.33
2019-05-07T15:58:51.729Z,11.50
2019-05-07T16:01:22.166Z,12.60
2019-05-07T16:03:54.426Z,12.10
2019-05-07T16:06:21.990Z,15.07
2019-05-07T16:08:52.335Z,15.33
2019-05-07T16:11:23.031Z,12.80
2019-05-07T16:14:04.736Z,11.70
2019-05-07T16:16:34.219Z,15.00
2019-05-07T16:19:07.668Z,13.43
2019-05-07T16:21:36.239Z,14.93
2019-05-07T16:24:04.930Z,11.33
2019-05-07T16:26:33.479Z,16.83
2019-05-07T16:29:04.331Z,11.43
2019-05-07T16:31:33.244Z,15.77
2019-05-07T16:34:02.564Z,14.57
2019-05-07T16:36:32.866Z,16.03
2019-05-07T16:39:03.423Z,11.40
2019-05-07T16:41:32.011Z,13.20
2019-05-07T16:44:02.717Z,15.53
2019-05-07T16:46:30.666Z,12.30
2019-05-07T16:48:59.339Z,12.53
2019-05-07T16:51:27.965Z,15.03
2019-05-07T16:53:57.472Z,17.17
2019-05-07T16:56:26.121Z,15.27
2019-05-07T16:58:59.269Z,14.50
2019-05-07T17:01:27.834Z,14.37
2019-05-07T17:03:57.966Z,16.87
2019-05-07T17:06:26.588Z,16.40
2019-05-07T17:09:13.554Z,13.00
2019-05-07T17:11:43.760Z,16.43
2019-05-07T17:14:12.956Z,12.57
2019-05-07T17:16:41.577Z,11.67
2019-05-07T17:19:11.844Z,12.90
2019-05-07T17:21:40.428Z,14.17
2019-05-07T17:24:09.280Z,13.70
2019-05-07T17:26:38.571Z,12.20
2019-05-07T17:29:07.231Z,11.93
2019-05-07T17:31:35.760Z,12.27
2019-05-07T17:34:04.358Z,21.27
2019-05-07T17:36:33.208Z,13.93
2019-05-07T17:39:02.683Z,13.93
2019-05-07T17:41:32.270Z,13.60
2019-05-07T17:44:02.671Z,12.13
2019-05-07T17:46:32.393Z,17.47
2019-05-07T17:49:02.502Z,18.83
2019-05-07T17:51:42.384Z,14.17
2019-05-07T17:54:13.174Z,16.57
2019-05-07T17:56:42.174Z,12.83
2019-05-07T17:59:12.210Z,13.50
2019-05-07T18:01:58.524Z,13.27
2019-05-07T18:04:27.663Z,11.83
2019-05-07T18:06:56.245Z,11.83
2019-05-07T18:09:24.868Z,14.77
2019-05-07T18:11:53.355Z,11.73
2019-05-07T18:14:22.787Z,21.13
2019-05-07T18:16:59.140Z,14.43
2019-05-07T18:19:29.249Z,12.97
2019-05-07T18:21:57.796Z,14.80
2019-05-07T18:24:26.402Z,16.37
2019-05-07T18:26:55.031Z,13.63
2019-05-07T18:29:23.489Z,13.90
2019-05-07T18:31:53.825Z,14.87
2019-05-07T18:34:22.441Z,17.53
2019-05-07T18:36:52.913Z,22.27
2019-05-07T18:39:21.089Z,14.70
2019-05-07T18:41:49.532Z,14.10
2019-05-07T18:44:18.027Z,15.47
2019-05-07T18:46:46.491Z,14.33
2019-05-07T18:49:15.023Z,13.93
2019-05-07T18:51:43.601Z,17.47
2019-05-07T18:54:26.373Z,16.87
2019-05-07T18:56:42.230Z,16.70
2019-05-07T18:59:11.117Z,16.20
2019-05-07T19:01:42.189Z,14.57
2019-05-07T19:04:12.884Z,18.97
2019-05-07T19:06:42.501Z,11.73
2019-05-07T19:09:11.285Z,20.37
2019-05-07T19:11:43.611Z,16.87
2019-05-07T19:14:13.391Z,12.17
2019-05-07T19:16:43.089Z,12.77
2019-05-07T19:19:12.436Z,15.33
2019-05-07T19:21:42.272Z,11.93
2019-05-07T19:24:10.998Z,17.70
2019-05-07T19:26:39.461Z,13.33
2019-05-07T19:29:07.934Z,14.90
2019-05-07T19:31:36.492Z,13.60
2019-05-07T19:34:05.216Z,18.70
2019-05-07T19:36:33.728Z,13.37
2019-05-07T19:39:02.365Z,15.70
2019-05-07T19:41:32.120Z,13.77
2019-05-07T19:44:02.063Z,16.53
2019-05-07T19:46:30.686Z,16.93
2019-05-07T19:48:59.145Z,14.30
2019-05-07T19:51:27.734Z,13.03
2019-05-07T19:53:57.428Z,14.07
2019-05-07T19:56:26.066Z,15.00
2019-05-07T19:58:55.094Z,15.40
2019-05-07T20:01:25.286Z,17.97
2019-05-07T20:03:55.734Z,13.73
2019-05-07T20:06:24.265Z,17.50
2019-05-07T20:08:53.056Z,16.33
2019-05-07T20:11:26.429Z,15.00
2019-05-07T20:13:54.988Z,18.50
2019-05-07T20:16:23.510Z,16.17
2019-05-07T20:18:52.542Z,14.13
2019-05-07T20:21:22.870Z,12.70
2019-05-07T20:23:52.670Z,15.37
2019-05-07T20:26:23.169Z,15.07
2019-05-07T20:28:52.613Z,12.13
2019-05-07T20:31:22.612Z,17.03
2019-05-07T20:33:53.043Z,15.47
2019-05-07T20:36:22.394Z,16.93
2019-05-07T20:38:52.148Z,16.83
2019-05-07T20:41:23.031Z,18.03
2019-05-07T20:43:52.357Z,15.60
2019-05-07T20:46:21.248Z,15.33
2019-05-07T20:48:50.067Z,19.53
2019-05-07T20:51:18.736Z,13.80
2019-05-07T20:54:00.719Z,14.57
2019-05-07T20:56:32.221Z,14.50
2019-05-07T20:59:02.979Z,15.47
2019-05-07T21:01:32.973Z,18.03
2019-05-07T21:04:02.165Z,17.60
2019-05-07T21:06:32.312Z,16.50
2019-05-07T21:09:00.932Z,15.73
2019-05-07T21:11:29.533Z,12.83
2019-05-07T21:13:57.968Z,13.77
2019-05-07T21:16:26.483Z,15.83
2019-05-07T21:18:54.986Z,14.37
2019-05-07T21:21:23.433Z,16.57
2019-05-07T21:23:52.698Z,15.10
2019-05-07T21:26:22.508Z,20.20
2019-05-07T21:28:52.802Z,15.50
2019-05-07T21:31:22.766Z,15.23
2019-05-07T21:33:52.369Z,16.10
2019-05-07T21:36:22.786Z,16.43
2019-05-07T21:38:51.820Z,13.37
2019-05-07T21:41:22.703Z,16.30
2019-05-07T21:43:52.662Z,15.87
2019-05-07T21:46:22.232Z,12.93
2019-05-07T21:48:51.806Z,13.30
2019-05-07T21:51:22.835Z,12.33
2019-05-07T21:54:08.041Z,18.20
2019-05-07T21:56:46.795Z,13.87
2019-05-07T21:59:17.093Z,15.07
2019-05-07T22:01:47.283Z,15.77
2019-05-07T22:04:15.870Z,12.20
2019-05-07T22:06:45.521Z,20.23
2019-05-07T22:09:14.373Z,14.70
2019-05-07T22:11:42.956Z,14.47
2019-05-07T22:14:12.866Z,12.83
2019-05-07T22:16:41.640Z,13.83
2019-05-07T22:19:12.086Z,14.93
2019-05-07T22:21:42.938Z,12.37
2019-05-07T22:24:13.013Z,11.60
2019-05-07T22:26:41.981Z,11.93
2019-05-07T22:29:12.588Z,17.07
2019-05-07T22:31:53.013Z,15.20
2019-05-07T22:34:23.218Z,14.70
2019-05-07T22:36:52.114Z,12.90
2019-05-07T22:39:22.152Z,17.47
2019-05-07T22:41:50.592Z,12.07
2019-05-07T22:44:19.099Z,14.27
2019-05-07T22:46:47.583Z,13.83
2019-05-07T22:49:16.034Z,15.37
2019-05-07T22:51:44.559Z,13.10
2019-05-07T22:54:13.174Z,16.87
2019-05-07T22:56:58.126Z,15.70
2019-05-07T22:59:26.662Z,15.13
2019-05-07T23:01:55.287Z,14.30
2019-05-07T23:04:23.736Z,10.73
2019-05-07T23:06:52.833Z,14.73
2019-05-07T23:09:22.338Z,12.93
2019-05-07T23:11:52.566Z,12.90
2019-05-07T23:14:22.611Z,16.20
2019-05-07T23:16:54.992Z,12.67
2019-05-07T23:19:22.147Z,13.87
2019-05-07T23:21:52.107Z,17.83
2019-05-07T23:24:22.753Z,10.23
2019-05-07T23:26:53.352Z,15.77
2019-05-07T23:29:22.505Z,14.33
2019-05-07T23:31:52.830Z,11.03
2019-05-07T23:34:21.937Z,15.03
2019-05-07T23:36:52.994Z,15.33
2019-05-07T23:39:22.679Z,15.63
2019-05-07T23:41:52.763Z,17.53
2019-05-07T23:44:22.918Z,11.50
2019-05-07T23:46:52.022Z,13.50
2019-05-07T23:49:22.988Z,16.53
2019-05-07T23:51:52.773Z,11.80
2019-05-07T23:54:22.990Z,17.10
2019-05-07T23:57:05.134Z,13.33
2019-05-07T23:59:22.207Z,15.27
